Time;durP1;ratioP1;P1;durP2;ratioP2;P2;SDS_P1;SDS_P2;PMS_P1;PMS_P2;Temp;Humidity;BMP_temperature;BMP_pressure;BME280_temperature;BME280_humidity;BME280_pressure;Samples;Min_cycle;Max_cycle;Signal;HPM_P1;HPM_P2
2020/12/03 00:01:39;;;;;;;;;;;20.90;41.20;;;;;;491577;240;980;-73
2020/12/03 00:03:40;;;;;;;;;;;20.90;41.00;;;;;;491619;240;1324;-73
2020/12/03 00:05:41;;;;;;;;;;;20.90;41.00;;;;;;491519;240;1137;-73
2020/12/03 00:07:43;;;;;;;;;;;20.90;40.80;;;;;;491520;240;1103;-73
2020/12/03 00:09:44;;;;;;;;;;;21.00;40.60;;;;;;491575;240;1110;-73
2020/12/03 00:11:45;;;;;;;;;;;20.90;40.60;;;;;;491545;240;2179;-73
2020/12/03 00:13:46;;;;;;;;;;;20.90;40.60;;;;;;491637;240;1056;-73
2020/12/03 00:15:48;;;;;;;;;;;20.90;40.50;;;;;;491572;240;954;-73
2020/12/03 00:17:49;;;;;;;;;;;20.90;39.90;;;;;;491649;240;1094;-73
2020/12/03 00:19:50;;;;;;;;;;;20.80;40.20;;;;;;491554;240;1197;-73
2020/12/03 00:21:52;;;;;;;;;;;20.70;40.20;;;;;;491591;240;1070;-73
2020/12/03 00:23:53;;;;;;;;;;;20.60;40.40;;;;;;491580;240;1230;-73
2020/12/03 00:25:54;;;;;;;;;;;20.40;40.50;;;;;;491607;240;1065;-73
2020/12/03 00:27:55;;;;;;;;;;;20.10;40.50;;;;;;491599;240;989;-73
2020/12/03 00:29:57;;;;;;;;;;;20.00;40.50;;;;;;491703;240;1240;-73
2020/12/03 00:31:58;;;;;;;;;;;20.00;40.40;;;;;;491529;240;2191;-73
2020/12/03 00:33:59;;;;;;;;;;;20.00;40.10;;;;;;491544;240;1278;-73
2020/12/03 00:36:00;;;;;;;;;;;20.00;40.00;;;;;;491541;240;1128;-73
2020/12/03 00:38:02;;;;;;;;;;;19.80;39.90;;;;;;491563;240;1268;-73
2020/12/03 00:40:03;;;;;;;;;;;19.80;39.90;;;;;;491592;240;974;-73
2020/12/03 00:42:04;;;;;;;;;;;19.80;39.70;;;;;;491580;240;978;-73
2020/12/03 00:44:06;;;;;;;;;;;19.70;39.60;;;;;;491585;240;1253;-73
2020/12/03 00:46:08;;;;;;;;;;;19.70;39.60;;;;;;491555;240;992;-73
2020/12/03 00:48:10;;;;;;;;;;;19.80;39.40;;;;;;491606;240;1229;-73
2020/12/03 00:50:11;;;;;;;;;;;19.80;39.40;;;;;;491596;240;1209;-73
2020/12/03 00:52:12;;;;;;;;;;;19.70;39.30;;;;;;491506;240;2184;-73
2020/12/03 00:54:14;;;;;;;;;;;19.70;38.60;;;;;;491673;240;1117;-73
2020/12/03 00:56:17;;;;;;;;;;;19.70;39.60;;;;;;491525;240;1101;-73
2020/12/03 00:58:17;;;;;;;;;;;19.70;39.60;;;;;;491569;240;2242;-73
2020/12/03 01:00:18;;;;;;;;;;;19.70;39.60;;;;;;491590;240;964;-73
2020/12/03 01:02:19;;;;;;;;;;;19.70;39.70;;;;;;491597;240;1022;-73
2020/12/03 01:04:21;;;;;;;;;;;19.70;39.80;;;;;;491610;240;1197;-73
2020/12/03 01:06:22;;;;;;;;;;;19.60;40.00;;;;;;491595;240;1119;-73
2020/12/03 01:08:23;;;;;;;;;;;19.70;40.10;;;;;;491646;240;1033;-73
2020/12/03 01:10:25;;;;;;;;;;;19.70;40.10;;;;;;491602;240;977;-73
2020/12/03 01:12:26;;;;;;;;;;;19.70;40.20;;;;;;491625;240;2180;-73
2020/12/03 01:14:27;;;;;;;;;;;19.70;40.20;;;;;;491620;240;989;-73
2020/12/03 01:16:29;;;;;;;;;;;19.70;40.20;;;;;;491620;240;1080;-73
2020/12/03 01:18:30;;;;;;;;;;;19.70;40.50;;;;;;491662;240;1098;-73
2020/12/03 01:20:31;;;;;;;;;;;19.60;40.60;;;;;;491623;240;1200;-73
2020/12/03 01:22:33;;;;;;;;;;;19.60;40.70;;;;;;491574;240;1136;-73
2020/12/03 01:24:34;;;;;;;;;;;19.60;39.80;;;;;;491615;240;966;-73
2020/12/03 01:26:35;;;;;;;;;;;19.60;40.80;;;;;;491586;240;974;-73
2020/12/03 01:28:36;;;;;;;;;;;19.60;40.90;;;;;;491620;240;1170;-73
2020/12/03 01:30:39;;;;;;;;;;;19.70;40.80;;;;;;491578;240;954;-73
2020/12/03 01:32:39;;;;;;;;;;;19.70;40.80;;;;;;491507;240;2192;-73
2020/12/03 01:34:41;;;;;;;;;;;19.70;40.80;;;;;;491515;240;1178;-73
2020/12/03 01:36:42;;;;;;;;;;;19.70;40.80;;;;;;491485;240;1027;-73
2020/12/03 01:38:43;;;;;;;;;;;19.70;41.00;;;;;;491527;240;1328;-73
2020/12/03 01:40:45;;;;;;;;;;;19.70;41.00;;;;;;491558;240;1092;-73
2020/12/03 01:42:46;;;;;;;;;;;19.70;41.00;;;;;;491563;240;995;-73
2020/12/03 01:44:47;;;;;;;;;;;19.70;41.10;;;;;;491613;240;967;-73
2020/12/03 01:46:49;;;;;;;;;;;19.70;41.10;;;;;;491527;240;965;-73
2020/12/03 01:48:50;;;;;;;;;;;19.70;40.20;;;;;;491549;240;1043;-73
2020/12/03 01:50:51;;;;;;;;;;;19.70;41.10;;;;;;491590;240;1216;-73
2020/12/03 01:52:53;;;;;;;;;;;19.70;41.20;;;;;;491560;240;2160;-73
2020/12/03 01:54:54;;;;;;;;;;;19.70;41.10;;;;;;491629;240;979;-72
2020/12/03 01:56:55;;;;;;;;;;;19.70;41.20;;;;;;491533;240;963;-73
2020/12/03 01:58:56;;;;;;;;;;;19.70;41.30;;;;;;491571;240;935;-73
2020/12/03 02:00:58;;;;;;;;;;;19.70;41.30;;;;;;491568;240;1011;-73
2020/12/03 02:02:59;;;;;;;;;;;19.70;41.30;;;;;;491581;240;1051;-73
2020/12/03 02:05:00;;;;;;;;;;;19.70;41.20;;;;;;491657;240;1226;-73
2020/12/03 02:07:01;;;;;;;;;;;19.70;41.30;;;;;;491531;240;968;-73
2020/12/03 02:09:03;;;;;;;;;;;19.70;41.30;;;;;;491548;240;1064;-73
2020/12/03 02:11:04;;;;;;;;;;;19.70;41.20;;;;;;491528;240;2183;-73
2020/12/03 02:13:05;;;;;;;;;;;19.70;41.10;;;;;;491518;240;1007;-73
2020/12/03 02:15:07;;;;;;;;;;;19.60;41.50;;;;;;491623;240;1034;-73
2020/12/03 02:17:08;;;;;;;;;;;19.60;41.50;;;;;;491487;240;1196;-73
2020/12/03 02:19:09;;;;;;;;;;;19.70;41.40;;;;;;491516;240;1120;-73
2020/12/03 02:21:10;;;;;;;;;;;19.70;41.30;;;;;;491536;240;1176;-73
2020/12/03 02:23:12;;;;;;;;;;;19.60;41.30;;;;;;491511;240;996;-73
2020/12/03 02:25:13;;;;;;;;;;;19.60;41.30;;;;;;491563;240;959;-73
2020/12/03 02:27:14;;;;;;;;;;;19.60;41.30;;;;;;491527;240;1180;-73
2020/12/03 02:29:16;;;;;;;;;;;19.60;41.20;;;;;;491595;240;980;-73
2020/12/03 02:31:17;;;;;;;;;;;19.60;41.10;;;;;;491521;240;2200;-73
2020/12/03 02:33:18;;;;;;;;;;;19.60;41.10;;;;;;491628;240;980;-73
2020/12/03 02:35:19;;;;;;;;;;;19.60;41.20;;;;;;491580;240;1260;-73
2020/12/03 02:37:21;;;;;;;;;;;19.50;41.20;;;;;;491549;240;1062;-73
2020/12/03 02:39:22;;;;;;;;;;;19.60;40.40;;;;;;491625;240;937;-73
2020/12/03 02:41:23;;;;;;;;;;;19.50;41.30;;;;;;491609;240;1282;-73
2020/12/03 02:43:25;;;;;;;;;;;19.50;41.30;;;;;;491554;240;1370;-73
2020/12/03 02:45:26;;;;;;;;;;;19.60;41.20;;;;;;491598;240;1064;-73
2020/12/03 02:47:27;;;;;;;;;;;19.50;41.10;;;;;;491540;240;1091;-73
2020/12/03 02:49:28;;;;;;;;;;;19.50;41.10;;;;;;491613;240;932;-73
2020/12/03 02:51:30;;;;;;;;;;;19.50;41.00;;;;;;491592;240;2172;-73
2020/12/03 02:53:31;;;;;;;;;;;19.60;41.00;;;;;;491508;240;1200;-73
2020/12/03 02:55:32;;;;;;;;;;;19.50;41.00;;;;;;491527;240;1064;-73
2020/12/03 02:57:33;;;;;;;;;;;19.50;41.10;;;;;;491527;240;976;-73
2020/12/03 02:59:35;;;;;;;;;;;19.50;41.10;;;;;;491596;240;946;-73
2020/12/03 03:01:36;;;;;;;;;;;19.50;41.10;;;;;;491558;240;1333;-73
2020/12/03 03:03:38;;;;;;;;;;;19.50;41.00;;;;;;491613;240;962;-73
2020/12/03 03:05:39;;;;;;;;;;;19.50;40.80;;;;;;491551;240;1155;-73
2020/12/03 03:07:40;;;;;;;;;;;19.60;40.40;;;;;;491630;240;1076;-73
2020/12/03 03:09:41;;;;;;;;;;;19.60;41.00;;;;;;491508;240;949;-73
2020/12/03 03:11:42;;;;;;;;;;;19.50;40.90;;;;;;491687;240;2172;-73
2020/12/03 03:13:44;;;;;;;;;;;19.50;40.80;;;;;;491593;240;943;-73
2020/12/03 03:15:47;;;;;;;;;;;19.60;40.80;;;;;;491642;240;949;-73
2020/12/03 03:17:48;;;;;;;;;;;19.50;40.10;;;;;;491535;240;948;-73
2020/12/03 03:19:49;;;;;;;;;;;19.50;40.70;;;;;;491556;240;945;-73
2020/12/03 03:21:51;;;;;;;;;;;19.50;41.00;;;;;;491634;240;1213;-73
2020/12/03 03:23:52;;;;;;;;;;;19.50;40.90;;;;;;491550;240;942;-73
2020/12/03 03:25:53;;;;;;;;;;;19.50;40.80;;;;;;491533;240;1040;-73
2020/12/03 03:27:55;;;;;;;;;;;19.50;40.70;;;;;;491582;240;983;-73
2020/12/03 03:29:56;;;;;;;;;;;19.40;40.90;;;;;;491653;240;988;-73
2020/12/03 03:31:57;;;;;;;;;;;19.40;40.80;;;;;;491577;240;2188;-73
2020/12/03 03:33:58;;;;;;;;;;;19.50;40.90;;;;;;491616;240;1029;-73
2020/12/03 03:36:00;;;;;;;;;;;19.40;40.90;;;;;;491578;240;1305;-72
2020/12/03 03:38:01;;;;;;;;;;;19.40;40.90;;;;;;491576;240;1096;-72
2020/12/03 03:40:02;;;;;;;;;;;19.40;41.10;;;;;;491594;240;953;-73
2020/12/03 03:42:03;;;;;;;;;;;19.30;41.10;;;;;;491546;240;993;-73
2020/12/03 03:44:05;;;;;;;;;;;19.40;41.20;;;;;;491541;240;952;-73
2020/12/03 03:46:06;;;;;;;;;;;19.30;39.80;;;;;;491552;240;1059;-73
2020/12/03 03:48:07;;;;;;;;;;;19.40;41.30;;;;;;491632;240;997;-73
2020/12/03 03:50:09;;;;;;;;;;;19.40;41.00;;;;;;491599;240;934;-73
2020/12/03 03:52:10;;;;;;;;;;;19.40;41.10;;;;;;491665;240;2179;-73
2020/12/03 03:54:11;;;;;;;;;;;19.40;41.00;;;;;;491638;240;1129;-73
2020/12/03 03:56:13;;;;;;;;;;;19.50;41.00;;;;;;491558;240;1488;-73
2020/12/03 03:58:14;;;;;;;;;;;19.40;41.00;;;;;;491597;240;1119;-73
2020/12/03 04:00:15;;;;;;;;;;;19.50;41.20;;;;;;491569;240;1187;-73
2020/12/03 04:02:17;;;;;;;;;;;19.50;41.00;;;;;;491591;240;1118;-73
2020/12/03 04:04:18;;;;;;;;;;;19.50;41.00;;;;;;491550;240;1035;-73
2020/12/03 04:06:19;;;;;;;;;;;19.60;41.10;;;;;;491524;240;1220;-73
2020/12/03 04:08:21;;;;;;;;;;;19.60;41.10;;;;;;491616;240;979;-73
2020/12/03 04:10:25;;;;;;;;;;;19.50;41.50;;;;;;491598;240;1677;-73
2020/12/03 04:12:23;;;;;;;;;;;19.60;41.10;;;;;;491675;240;2183;-73
2020/12/03 04:14:24;;;;;;;;;;;19.70;41.10;;;;;;491620;240;957;-73
2020/12/03 04:16:26;;;;;;;;;;;19.80;41.00;;;;;;491574;240;1037;-73
2020/12/03 04:18:27;;;;;;;;;;;19.80;40.90;;;;;;491581;240;966;-73
2020/12/03 04:20:28;;;;;;;;;;;19.80;41.00;;;;;;491589;240;1184;-73
2020/12/03 04:22:30;;;;;;;;;;;19.80;41.10;;;;;;491634;240;1230;-73
2020/12/03 04:24:31;;;;;;;;;;;19.80;41.00;;;;;;491535;240;1312;-73
2020/12/03 04:26:32;;;;;;;;;;;19.70;41.10;;;;;;491487;240;1204;-73
2020/12/03 04:28:33;;;;;;;;;;;19.70;41.20;;;;;;491495;240;1308;-73
2020/12/03 04:30:35;;;;;;;;;;;19.70;41.20;;;;;;491653;240;1381;-73
2020/12/03 04:32:36;;;;;;;;;;;19.70;41.30;;;;;;491602;240;2183;-73
2020/12/03 04:34:37;;;;;;;;;;;19.60;40.40;;;;;;491612;240;1108;-73
2020/12/03 04:36:39;;;;;;;;;;;19.70;41.30;;;;;;491551;240;1237;-73
2020/12/03 04:38:40;;;;;;;;;;;19.70;41.30;;;;;;491608;240;952;-73
2020/12/03 04:40:41;;;;;;;;;;;19.70;41.10;;;;;;491547;240;1009;-73
2020/12/03 04:42:42;;;;;;;;;;;19.70;41.10;;;;;;491586;240;1277;-73
2020/12/03 04:44:44;;;;;;;;;;;19.80;41.10;;;;;;491682;240;1170;-73
2020/12/03 04:46:45;;;;;;;;;;;19.70;41.00;;;;;;491569;240;932;-73
2020/12/03 04:48:46;;;;;;;;;;;19.70;41.10;;;;;;491589;240;1190;-73
2020/12/03 04:50:48;;;;;;;;;;;19.60;41.10;;;;;;491525;240;1068;-73
2020/12/03 04:52:49;;;;;;;;;;;19.70;41.10;;;;;;491518;240;2171;-73
2020/12/03 04:54:50;;;;;;;;;;;19.60;40.90;;;;;;491599;240;1174;-73
2020/12/03 04:56:51;;;;;;;;;;;19.70;40.80;;;;;;491539;240;1123;-73
2020/12/03 04:58:53;;;;;;;;;;;19.70;40.90;;;;;;491666;240;1131;-73
2020/12/03 05:00:54;;;;;;;;;;;19.60;41.10;;;;;;491590;240;958;-73
2020/12/03 05:02:55;;;;;;;;;;;19.60;41.00;;;;;;491553;240;1129;-73
2020/12/03 05:04:57;;;;;;;;;;;19.70;41.00;;;;;;491575;240;987;-73
2020/12/03 05:06:58;;;;;;;;;;;19.80;40.80;;;;;;491518;240;1546;-72
2020/12/03 05:08:59;;;;;;;;;;;19.90;40.70;;;;;;491488;240;949;-73
2020/12/03 05:11:00;;;;;;;;;;;19.90;40.60;;;;;;491530;240;1084;-73
2020/12/03 05:13:02;;;;;;;;;;;19.90;40.60;;;;;;491471;240;2196;-73
2020/12/03 05:15:06;;;;;;;;;;;19.80;40.70;;;;;;491474;240;1072;-73
2020/12/03 05:17:04;;;;;;;;;;;19.70;40.80;;;;;;491487;240;2207;-73
2020/12/03 05:19:06;;;;;;;;;;;19.60;40.90;;;;;;491447;240;1151;-72
2020/12/03 05:21:07;;;;;;;;;;;19.60;41.00;;;;;;491470;240;982;-73
2020/12/03 05:23:08;;;;;;;;;;;19.60;41.00;;;;;;491357;240;1311;-73
2020/12/03 05:25:09;;;;;;;;;;;19.60;40.00;;;;;;491469;240;975;-73
2020/12/03 05:27:11;;;;;;;;;;;19.60;40.90;;;;;;491464;240;1325;-73
2020/12/03 05:29:12;;;;;;;;;;;19.50;40.90;;;;;;491489;240;976;-73
2020/12/03 05:31:13;;;;;;;;;;;19.50;40.90;;;;;;491443;240;1046;-73
2020/12/03 05:33:16;;;;;;;;;;;19.50;40.90;;;;;;491361;240;2172;-73
2020/12/03 05:35:17;;;;;;;;;;;19.40;40.90;;;;;;491504;240;1092;-73
2020/12/03 05:37:18;;;;;;;;;;;19.40;41.00;;;;;;491503;240;1278;-73
2020/12/03 05:39:20;;;;;;;;;;;19.50;40.90;;;;;;491354;240;985;-73
2020/12/03 05:41:21;;;;;;;;;;;19.50;41.00;;;;;;491339;240;959;-72
2020/12/03 05:43:22;;;;;;;;;;;19.50;41.00;;;;;;491396;240;1074;-73
2020/12/03 05:45:23;;;;;;;;;;;19.50;40.80;;;;;;491502;240;962;-72
2020/12/03 05:47:25;;;;;;;;;;;19.60;41.00;;;;;;491487;240;975;-72
2020/12/03 05:49:26;;;;;;;;;;;19.60;40.90;;;;;;491471;240;1220;-72
2020/12/03 05:51:27;;;;;;;;;;;19.50;40.90;;;;;;491483;240;938;-72
2020/12/03 05:53:29;;;;;;;;;;;19.50;41.00;;;;;;491440;240;2188;-72
2020/12/03 05:55:30;;;;;;;;;;;19.50;40.50;;;;;;491434;240;1141;-73
2020/12/03 05:57:31;;;;;;;;;;;19.50;41.20;;;;;;491401;240;1165;-73
2020/12/03 05:59:32;;;;;;;;;;;19.40;41.10;;;;;;491392;240;1242;-73
2020/12/03 06:01:34;;;;;;;;;;;19.40;41.10;;;;;;491380;240;1069;-72
2020/12/03 06:03:35;;;;;;;;;;;19.40;41.20;;;;;;491294;240;942;-73
2020/12/03 06:05:36;;;;;;;;;;;19.40;41.20;;;;;;491263;240;1081;-73
2020/12/03 06:07:38;;;;;;;;;;;19.40;41.10;;;;;;491254;240;1253;-73
2020/12/03 06:09:39;;;;;;;;;;;19.40;41.20;;;;;;491468;240;2222;-73
2020/12/03 06:11:40;;;;;;;;;;;19.40;41.20;;;;;;491453;240;967;-73
2020/12/03 06:13:41;;;;;;;;;;;19.40;41.20;;;;;;491361;240;2191;-73
2020/12/03 06:15:43;;;;;;;;;;;19.30;40.30;;;;;;491374;240;1046;-72
2020/12/03 06:17:44;;;;;;;;;;;19.40;41.30;;;;;;491419;240;1194;-73
2020/12/03 06:19:45;;;;;;;;;;;19.40;41.40;;;;;;491347;240;1033;-73
2020/12/03 06:21:46;;;;;;;;;;;19.40;41.30;;;;;;491291;240;961;-73
2020/12/03 06:23:48;;;;;;;;;;;19.40;41.30;;;;;;491294;240;1135;-73
2020/12/03 06:25:49;;;;;;;;;;;19.40;41.30;;;;;;491237;240;940;-72
2020/12/03 06:27:50;;;;;;;;;;;19.40;41.30;;;;;;491236;240;1221;-73
2020/12/03 06:29:52;;;;;;;;;;;19.40;41.20;;;;;;491318;240;1070;-72
2020/12/03 06:31:53;;;;;;;;;;;19.60;41.20;;;;;;491323;240;2275;-72
2020/12/03 06:33:54;;;;;;;;;;;19.70;41.00;;;;;;491203;240;2172;-72
2020/12/03 06:35:55;;;;;;;;;;;19.80;40.80;;;;;;491142;240;1219;-73
2020/12/03 06:37:57;;;;;;;;;;;20.00;40.70;;;;;;491180;240;1302;-72
2020/12/03 06:39:58;;;;;;;;;;;20.10;40.70;;;;;;491239;240;1012;-72
2020/12/03 06:41:59;;;;;;;;;;;20.30;39.50;;;;;;491296;240;1196;-72
2020/12/03 06:44:01;;;;;;;;;;;20.30;40.70;;;;;;491130;240;994;-72
2020/12/03 06:46:02;;;;;;;;;;;20.40;40.60;;;;;;491116;240;1230;-72
2020/12/03 06:48:03;;;;;;;;;;;20.50;40.60;;;;;;491135;240;974;-72
2020/12/03 06:50:05;;;;;;;;;;;20.50;40.70;;;;;;491198;240;986;-73
2020/12/03 06:52:06;;;;;;;;;;;20.50;40.60;;;;;;491318;240;1179;-73
2020/12/03 06:54:08;;;;;;;;;;;20.50;40.70;;;;;;491227;240;2191;-73
2020/12/03 06:56:09;;;;;;;;;;;20.60;40.80;;;;;;491012;240;1052;-72
2020/12/03 06:58:10;;;;;;;;;;;20.60;40.70;;;;;;491110;240;1072;-72
2020/12/03 07:00:11;;;;;;;;;;;20.50;40.90;;;;;;491238;240;1118;-72
2020/12/03 07:02:13;;;;;;;;;;;20.30;40.90;;;;;;491218;240;1034;-72
2020/12/03 07:04:14;;;;;;;;;;;20.20;40.80;;;;;;491168;240;1054;-72
2020/12/03 07:06:16;;;;;;;;;;;20.10;41.20;;;;;;491057;240;1066;-72
2020/12/03 07:08:17;;;;;;;;;;;19.90;41.40;;;;;;491103;240;1292;-72
2020/12/03 07:10:18;;;;;;;;;;;19.80;41.20;;;;;;491158;240;1112;-72
2020/12/03 07:12:20;;;;;;;;;;;19.70;41.30;;;;;;491122;240;1203;-72
2020/12/03 07:14:21;;;;;;;;;;;19.70;41.20;;;;;;491034;240;2191;-72
2020/12/03 07:16:22;;;;;;;;;;;19.70;41.10;;;;;;490957;240;973;-73
2020/12/03 07:18:23;;;;;;;;;;;19.70;40.90;;;;;;490960;240;1259;-72
2020/12/03 07:20:25;;;;;;;;;;;19.70;40.70;;;;;;490914;240;973;-72
2020/12/03 07:22:26;;;;;;;;;;;19.70;40.60;;;;;;491010;240;1104;-72
2020/12/03 07:24:27;;;;;;;;;;;19.70;40.50;;;;;;491097;240;1177;-72
2020/12/03 07:26:29;;;;;;;;;;;19.60;40.40;;;;;;491060;240;1217;-72
2020/12/03 07:28:32;;;;;;;;;;;19.60;40.20;;;;;;491137;240;1130;-72
2020/12/03 07:30:31;;;;;;;;;;;19.60;40.00;;;;;;491093;240;2110;-72
2020/12/03 07:32:33;;;;;;;;;;;19.60;39.90;;;;;;490952;240;1235;-72
2020/12/03 07:34:34;;;;;;;;;;;19.60;40.20;;;;;;490913;240;2187;-72
2020/12/03 07:36:36;;;;;;;;;;;19.60;40.20;;;;;;490731;240;1249;-72
2020/12/03 07:38:37;;;;;;;;;;;19.70;40.10;;;;;;490574;240;1992;-72
2020/12/03 07:40:38;;;;;;;;;;;19.70;40.10;;;;;;490858;240;1053;-72
2020/12/03 07:42:39;;;;;;;;;;;19.80;40.20;;;;;;491052;240;1115;-72
2020/12/03 07:44:41;;;;;;;;;;;19.80;40.10;;;;;;491044;240;1195;-72
2020/12/03 07:46:42;;;;;;;;;;;19.90;40.10;;;;;;490878;240;1018;-72
2020/12/03 07:48:44;;;;;;;;;;;20.10;40.10;;;;;;490976;240;1177;-72
2020/12/03 07:50:45;;;;;;;;;;;20.20;39.90;;;;;;491000;240;1021;-72
2020/12/03 07:52:46;;;;;;;;;;;20.30;40.00;;;;;;490834;240;1003;-72
2020/12/03 07:54:48;;;;;;;;;;;20.30;40.10;;;;;;490806;240;2179;-72
2020/12/03 07:56:49;;;;;;;;;;;20.20;39.30;;;;;;490776;240;1160;-72
2020/12/03 07:58:50;;;;;;;;;;;20.10;40.40;;;;;;490878;240;1032;-72
2020/12/03 08:00:52;;;;;;;;;;;19.90;40.90;;;;;;491051;240;1210;-72
2020/12/03 08:02:53;;;;;;;;;;;19.80;40.80;;;;;;491023;240;984;-72
2020/12/03 08:04:54;;;;;;;;;;;19.80;40.90;;;;;;490834;240;1000;-73
2020/12/03 08:06:56;;;;;;;;;;;19.80;40.90;;;;;;490776;240;1298;-73
2020/12/03 08:08:57;;;;;;;;;;;19.70;41.10;;;;;;490719;240;1174;-72
2020/12/03 08:10:59;;;;;;;;;;;19.70;41.10;;;;;;490721;240;1357;-72
2020/12/03 08:13:00;;;;;;;;;;;19.70;41.20;;;;;;490724;240;1065;-73
2020/12/03 08:15:04;;;;;;;;;;;19.60;41.20;;;;;;490945;240;2172;-72
2020/12/03 08:17:02;;;;;;;;;;;19.60;41.10;;;;;;490954;240;2221;-72
2020/12/03 08:19:04;;;;;;;;;;;19.60;41.40;;;;;;491014;240;966;-72
2020/12/03 08:21:05;;;;;;;;;;;19.60;41.20;;;;;;491009;240;1051;-72
2020/12/03 08:23:06;;;;;;;;;;;19.70;41.20;;;;;;490961;240;1104;-72
2020/12/03 08:25:07;;;;;;;;;;;19.70;41.20;;;;;;490947;240;1178;-72
2020/12/03 08:27:09;;;;;;;;;;;19.60;41.30;;;;;;490940;240;1038;-72
2020/12/03 08:29:10;;;;;;;;;;;19.60;41.40;;;;;;490890;240;1023;-72
2020/12/03 08:31:11;;;;;;;;;;;19.60;41.40;;;;;;490708;240;1053;-72
2020/12/03 08:33:14;;;;;;;;;;;19.50;41.50;;;;;;490724;240;2180;-72
2020/12/03 08:35:14;;;;;;;;;;;19.50;41.30;;;;;;490923;240;2154;-73
2020/12/03 08:37:15;;;;;;;;;;;19.50;41.30;;;;;;490727;240;1042;-72
2020/12/03 08:39:16;;;;;;;;;;;19.60;41.40;;;;;;490647;242;1089;-72
2020/12/03 08:41:19;;;;;;;;;;;19.60;41.40;;;;;;490710;240;1190;-72
2020/12/03 08:43:19;;;;;;;;;;;19.60;41.20;;;;;;490752;240;2102;-72
2020/12/03 08:45:20;;;;;;;;;;;19.60;41.20;;;;;;490735;240;1024;-72
2020/12/03 08:47:22;;;;;;;;;;;19.60;41.10;;;;;;490645;240;1046;-72
2020/12/03 08:49:24;;;;;;;;;;;19.60;40.30;;;;;;490786;240;1117;-72
2020/12/03 08:51:25;;;;;;;;;;;19.60;41.50;;;;;;490689;240;975;-72
2020/12/03 08:53:30;;;;;;;;;;;19.60;41.30;;;;;;490663;240;2192;-72
2020/12/03 08:55:28;;;;;;;;;;;19.60;41.20;;;;;;490964;240;2154;-72
2020/12/03 08:57:30;;;;;;;;;;;19.60;41.20;;;;;;490825;240;1387;-72
2020/12/03 08:59:31;;;;;;;;;;;19.50;41.20;;;;;;491026;240;1180;-73
2020/12/03 09:01:32;;;;;;;;;;;19.50;41.20;;;;;;490864;240;1087;-73
2020/12/03 09:03:34;;;;;;;;;;;19.50;41.20;;;;;;490633;240;1132;-72
2020/12/03 09:05:36;;;;;;;;;;;19.60;41.20;;;;;;490661;240;1054;-72
2020/12/03 09:07:37;;;;;;;;;;;19.60;41.10;;;;;;490739;240;1120;-72
2020/12/03 09:09:38;;;;;;;;;;;19.60;41.20;;;;;;490672;240;1121;-72
2020/12/03 09:11:39;;;;;;;;;;;19.60;41.10;;;;;;490803;240;1268;-72
2020/12/03 09:13:41;;;;;;;;;;;19.70;41.10;;;;;;490807;240;2176;-72
2020/12/03 09:15:42;;;;;;;;;;;19.60;41.20;;;;;;490751;240;1315;-72
2020/12/03 09:17:43;;;;;;;;;;;19.60;41.20;;;;;;490729;240;1185;-72
2020/12/03 09:19:44;;;;;;;;;;;19.60;40.80;;;;;;490936;240;2197;-72
2020/12/03 09:21:46;;;;;;;;;;;19.50;41.20;;;;;;490868;240;1033;-72
2020/12/03 09:23:47;;;;;;;;;;;19.50;41.20;;;;;;490658;240;1027;-72
2020/12/03 09:25:48;;;;;;;;;;;19.50;41.10;;;;;;490575;240;1178;-73
2020/12/03 09:27:50;;;;;;;;;;;19.60;41.10;;;;;;490555;240;1047;-72
2020/12/03 09:29:51;;;;;;;;;;;19.60;41.00;;;;;;490751;240;1152;-73
2020/12/03 09:31:52;;;;;;;;;;;19.70;40.30;;;;;;490611;240;1119;-72
2020/12/03 09:33:53;;;;;;;;;;;19.60;41.00;;;;;;490698;240;2207;-72
2020/12/03 09:35:55;;;;;;;;;;;19.60;41.00;;;;;;490846;240;1121;-72
2020/12/03 09:37:56;;;;;;;;;;;19.50;41.30;;;;;;490835;240;1187;-72
2020/12/03 09:39:57;;;;;;;;;;;19.50;41.30;;;;;;490743;240;1123;-72
2020/12/03 09:41:58;;;;;;;;;;;19.50;41.30;;;;;;490741;240;1092;-72
2020/12/03 09:44:03;;;;;;;;;;;19.50;41.30;;;;;;490869;240;1078;-72
2020/12/03 09:46:05;;;;;;;;;;;19.50;41.30;;;;;;490808;240;1649;-72
2020/12/03 09:48:02;;;;;;;;;;;19.60;41.40;;;;;;490793;240;1765;-72
2020/12/03 09:50:04;;;;;;;;;;;19.60;41.30;;;;;;490802;240;1181;-72
2020/12/03 09:52:08;;;;;;;;;;;19.60;41.20;;;;;;490831;240;1033;-72
2020/12/03 09:54:06;;;;;;;;;;;19.70;41.30;;;;;;490758;240;2230;-73
2020/12/03 09:56:07;;;;;;;;;;;19.60;40.60;;;;;;490628;240;1189;-72
2020/12/03 09:58:09;;;;;;;;;;;19.70;41.40;;;;;;490686;240;1085;-72
2020/12/03 10:00:10;;;;;;;;;;;19.60;41.40;;;;;;490744;240;1171;-72
2020/12/03 10:02:11;;;;;;;;;;;19.60;41.50;;;;;;490920;240;1198;-71
2020/12/03 10:04:12;;;;;;;;;;;19.70;41.40;;;;;;490761;240;1086;-73
2020/12/03 10:06:14;;;;;;;;;;;19.60;41.60;;;;;;491090;240;1231;-72
2020/12/03 10:08:15;;;;;;;;;;;19.60;40.60;;;;;;490911;240;1200;-73
2020/12/03 10:10:16;;;;;;;;;;;19.50;41.60;;;;;;490756;240;1187;-72
2020/12/03 10:12:18;;;;;;;;;;;19.60;41.70;;;;;;490823;240;1186;-72
2020/12/03 10:14:19;;;;;;;;;;;19.60;41.70;;;;;;490814;240;2172;-72
2020/12/03 10:16:20;;;;;;;;;;;19.60;41.60;;;;;;490906;240;1338;-73
2020/12/03 10:18:21;;;;;;;;;;;19.60;41.50;;;;;;490867;240;1183;-72
2020/12/03 10:20:23;;;;;;;;;;;19.60;41.60;;;;;;490673;240;1021;-72
2020/12/03 10:22:24;;;;;;;;;;;19.60;41.60;;;;;;490713;240;1156;-72
2020/12/03 10:24:25;;;;;;;;;;;19.70;41.60;;;;;;490747;240;1152;-72
2020/12/03 10:26:27;;;;;;;;;;;19.70;41.40;;;;;;490775;240;1260;-72
2020/12/03 10:28:28;;;;;;;;;;;19.70;41.30;;;;;;490785;240;1071;-73
2020/12/03 10:30:29;;;;;;;;;;;19.90;41.20;;;;;;490829;240;1214;-74
2020/12/03 10:32:30;;;;;;;;;;;20.00;41.00;;;;;;490824;240;1105;-72
2020/12/03 10:34:32;;;;;;;;;;;20.00;40.90;;;;;;490980;240;2168;-73
2020/12/03 10:36:34;;;;;;;;;;;19.90;40.10;;;;;;490818;240;2191;-72
2020/12/03 10:38:34;;;;;;;;;;;19.90;41.30;;;;;;490713;241;1664;-73
2020/12/03 10:40:35;;;;;;;;;;;19.80;41.20;;;;;;490621;240;1046;-73
2020/12/03 10:42:37;;;;;;;;;;;19.80;41.30;;;;;;490598;240;1175;-72
2020/12/03 10:44:40;;;;;;;;;;;19.80;41.40;;;;;;490669;240;954;-72
2020/12/03 10:46:43;;;;;;;;;;;19.80;41.40;;;;;;490664;240;1104;-72
2020/12/03 10:48:44;;;;;;;;;;;19.80;41.30;;;;;;490742;240;1269;-72
2020/12/03 10:50:45;;;;;;;;;;;19.70;41.10;;;;;;490789;240;1117;-72
2020/12/03 10:52:46;;;;;;;;;;;19.70;41.20;;;;;;490774;240;1206;-72
2020/12/03 10:54:48;;;;;;;;;;;19.70;41.10;;;;;;490872;240;2199;-72
2020/12/03 10:56:50;;;;;;;;;;;19.60;40.90;;;;;;490899;240;1175;-72
2020/12/03 10:58:54;;;;;;;;;;;19.60;40.80;;;;;;490888;240;997;-72
2020/12/03 11:00:53;;;;;;;;;;;19.60;40.70;;;;;;490843;240;2144;-72
2020/12/03 11:02:54;;;;;;;;;;;19.60;40.80;;;;;;490753;240;1047;-72
2020/12/03 11:04:55;;;;;;;;;;;19.50;40.70;;;;;;490703;240;1178;-72
2020/12/03 11:06:56;;;;;;;;;;;19.60;40.70;;;;;;490681;240;1079;-73
2020/12/03 11:08:58;;;;;;;;;;;19.60;40.60;;;;;;490682;240;1152;-72
2020/12/03 11:10:59;;;;;;;;;;;19.60;39.90;;;;;;490565;240;1069;-73
2020/12/03 11:13:00;;;;;;;;;;;19.60;40.70;;;;;;490566;240;1217;-73
2020/12/03 11:15:01;;;;;;;;;;;19.60;40.60;;;;;;490733;240;2188;-73
2020/12/03 11:17:03;;;;;;;;;;;19.60;40.70;;;;;;490765;240;1087;-72
2020/12/03 11:19:04;;;;;;;;;;;19.70;40.70;;;;;;490768;240;1233;-73
2020/12/03 11:21:05;;;;;;;;;;;19.70;40.50;;;;;;490686;240;1049;-72
2020/12/03 11:23:07;;;;;;;;;;;19.70;40.60;;;;;;490702;240;993;-72
2020/12/03 11:25:08;;;;;;;;;;;19.70;40.50;;;;;;490912;240;1807;-72
2020/12/03 11:27:09;;;;;;;;;;;19.80;40.60;;;;;;490914;240;1190;-72
2020/12/03 11:29:11;;;;;;;;;;;19.70;40.60;;;;;;490816;240;1647;-72
2020/12/03 11:31:12;;;;;;;;;;;19.70;40.60;;;;;;490745;240;1265;-73
2020/12/03 11:33:13;;;;;;;;;;;19.70;40.80;;;;;;490588;240;1128;-73
2020/12/03 11:35:14;;;;;;;;;;;19.70;40.80;;;;;;490944;240;2183;-73
2020/12/03 11:37:16;;;;;;;;;;;19.80;40.80;;;;;;491008;240;1068;-73
2020/12/03 11:39:17;;;;;;;;;;;19.70;40.80;;;;;;490817;240;1043;-73
2020/12/03 11:41:22;;;;;;;;;;;19.70;40.50;;;;;;490655;240;1101;-73
2020/12/03 11:43:35;;;;;;;;;;;19.70;41.10;;;;;;490736;240;2209;-73
2020/12/03 11:48:25;;;;;;;;;;;19.70;41.20;;;;;;482931;244;1162;-73
2020/12/03 11:50:22;;;;;;;;;;;19.80;41.10;;;;;;482867;246;2190;-73
2020/12/03 11:52:23;;;;;;;;;;;19.90;41.20;;;;;;483585;243;1161;-73
2020/12/03 11:54:24;;;;;;;;;;;20.00;41.10;;;;;;490666;240;2184;-73
2020/12/03 11:56:25;;;;;;;;;;;20.10;41.10;;;;;;490507;240;1135;-73
2020/12/03 11:58:29;;;;;;;;;;;20.30;41.20;;;;;;490646;240;1163;-72
2020/12/03 12:00:29;;;;;;;;;;;20.40;41.10;;;;;;490697;240;2244;-73
2020/12/03 12:02:29;;;;;;;;;;;20.50;41.10;;;;;;490661;240;2192;-73